createdAt,value
2023-05-06T00:01:29.196Z,9.45
2023-05-06T00:03:55.565Z,8.30
2023-05-06T00:06:22.303Z,6.38
2023-05-06T00:08:48.516Z,12.95
2023-05-06T00:11:14.723Z,9.43
2023-05-06T00:13:41.195Z,10.98
2023-05-06T00:16:07.501Z,7.68
2023-05-06T00:18:33.823Z,8.48
2023-05-06T00:21:00.036Z,8.35
2023-05-06T00:23:26.384Z,6.72
2023-05-06T00:25:53.525Z,8.65
2023-05-06T00:28:19.744Z,8.75
2023-05-06T00:30:45.961Z,8.02
2023-05-06T00:33:12.201Z,8.27
2023-05-06T00:35:38.429Z,5.85
2023-05-06T00:38:12.107Z,10.57
2023-05-06T00:40:38.504Z,7.68
2023-05-06T00:43:05.450Z,9.25
2023-05-06T00:47:58.391Z,7.05
2023-05-06T00:50:25.586Z,9.65
2023-05-06T00:52:51.905Z,14.65
2023-05-06T00:55:18.272Z,9.45
2023-05-06T00:57:44.568Z,9.27
2023-05-06T01:00:11.688Z,10.25
2023-05-06T01:02:46.421Z,8.55
2023-05-06T01:05:13.683Z,9.43
2023-05-06T01:07:55.970Z,12.70
2023-05-06T01:10:54.768Z,8.02
2023-05-06T01:13:30.278Z,7.93
2023-05-06T01:15:56.985Z,8.80
2023-05-06T01:18:25.466Z,11.05
2023-05-06T01:20:52.747Z,13.93
2023-05-06T01:23:19.066Z,10.85
2023-05-06T01:25:45.340Z,11.32
2023-05-06T01:28:12.037Z,10.07
2023-05-06T01:30:50.592Z,9.88
2023-05-06T01:33:27.510Z,7.63
2023-05-06T01:35:56.197Z,10.65
2023-05-06T01:38:29.801Z,11.63
2023-05-06T01:40:56.863Z,8.35
2023-05-06T01:43:24.554Z,7.03
2023-05-06T01:45:53.228Z,10.73
2023-05-06T01:48:22.100Z,9.63
2023-05-06T01:50:48.460Z,8.85
2023-05-06T01:53:14.737Z,14.32
2023-05-06T01:55:40.937Z,9.35
2023-05-06T01:58:07.180Z,12.00
2023-05-06T02:00:33.872Z,7.40
2023-05-06T02:03:00.433Z,9.13
2023-05-06T02:05:26.791Z,11.82
2023-05-06T02:07:53.044Z,9.23
2023-05-06T02:10:19.460Z,12.70
2023-05-06T02:12:45.989Z,14.98
2023-05-06T02:15:12.343Z,11.10
2023-05-06T02:17:38.649Z,10.63
2023-05-06T02:20:05.909Z,10.93
2023-05-06T02:22:32.147Z,8.32
2023-05-06T02:24:58.364Z,8.48
2023-05-06T02:27:24.641Z,11.43
2023-05-06T02:29:50.872Z,12.90
2023-05-06T02:32:17.135Z,12.88
2023-05-06T02:34:43.355Z,13.25
2023-05-06T02:37:09.602Z,15.88
2023-05-06T02:39:35.866Z,13.52
2023-05-06T02:42:02.535Z,12.02
2023-05-06T02:44:28.771Z,16.25
2023-05-06T02:46:55.153Z,13.00
2023-05-06T02:49:21.438Z,15.30
2023-05-06T02:51:47.667Z,14.07
2023-05-06T02:54:13.885Z,17.13
2023-05-06T02:56:42.423Z,12.35
2023-05-06T02:59:08.650Z,16.42
2023-05-06T03:01:34.883Z,12.57
2023-05-06T03:04:01.149Z,11.80
2023-05-06T03:06:27.437Z,11.25
2023-05-06T03:08:53.907Z,8.88
2023-05-06T03:11:21.066Z,9.13
2023-05-06T03:13:47.311Z,12.38
2023-05-06T03:16:16.330Z,9.02
2023-05-06T03:18:42.553Z,10.55
2023-05-06T03:21:08.857Z,16.10
2023-05-06T03:23:35.163Z,11.63
2023-05-06T03:26:01.364Z,12.80
2023-05-06T03:28:27.583Z,12.55
2023-05-06T03:30:53.801Z,19.42
2023-05-06T03:33:20.031Z,9.45
2023-05-06T03:35:46.257Z,10.07
2023-05-06T03:38:12.515Z,12.20
2023-05-06T03:40:38.838Z,10.55
2023-05-06T03:43:05.125Z,10.02
2023-05-06T03:45:31.425Z,12.38
2023-05-06T03:47:58.627Z,10.93
2023-05-06T03:50:25.056Z,11.65
2023-05-06T03:52:51.296Z,10.05
2023-05-06T03:55:17.520Z,12.93
2023-05-06T03:57:43.744Z,10.05
2023-05-06T04:00:10.402Z,13.27
2023-05-06T04:02:37.006Z,14.40
2023-05-06T04:05:03.876Z,16.95
2023-05-06T04:07:30.973Z,11.50
2023-05-06T04:09:57.177Z,14.18
2023-05-06T04:12:23.422Z,14.05
2023-05-06T04:14:49.645Z,15.40
2023-05-06T04:17:15.860Z,14.45
2023-05-06T04:19:42.974Z,14.70
2023-05-06T04:22:09.195Z,28.50
2023-05-06T04:24:35.417Z,12.73
2023-05-06T04:27:02.731Z,17.52
2023-05-06T04:29:28.965Z,13.60
2023-05-06T04:31:55.387Z,14.40
2023-05-06T04:34:21.740Z,25.30
2023-05-06T04:36:49.428Z,10.00
2023-05-06T04:39:16.259Z,14.65
2023-05-06T04:41:42.557Z,10.93
2023-05-06T04:44:08.941Z,11.38
2023-05-06T04:46:35.901Z,12.18
2023-05-06T04:51:28.338Z,14.70
2023-05-06T04:53:54.548Z,12.82
2023-05-06T04:56:21.086Z,10.88
2023-05-06T04:58:47.316Z,11.10
2023-05-06T05:01:13.654Z,11.32
2023-05-06T05:03:39.909Z,8.82
2023-05-06T05:06:06.280Z,14.15
2023-05-06T05:08:32.674Z,8.60
2023-05-06T05:10:58.954Z,16.20
2023-05-06T05:13:25.218Z,9.95
2023-05-06T05:15:54.467Z,17.00
2023-05-06T05:18:20.841Z,14.00
2023-05-06T05:20:47.093Z,15.80
2023-05-06T05:23:13.813Z,11.73
2023-05-06T05:25:40.237Z,13.00
2023-05-06T05:28:06.491Z,12.07
2023-05-06T05:30:32.767Z,11.88
2023-05-06T05:32:59.133Z,9.80
2023-05-06T05:35:25.447Z,12.60
2023-05-06T05:37:51.675Z,12.25
2023-05-06T05:40:17.906Z,12.63
2023-05-06T05:42:44.126Z,14.35
2023-05-06T05:45:10.848Z,13.25
2023-05-06T05:47:37.281Z,11.00
2023-05-06T05:50:04.308Z,18.23
2023-05-06T05:52:31.433Z,11.27
2023-05-06T05:54:57.677Z,11.98
2023-05-06T05:57:23.930Z,13.77
2023-05-06T05:59:50.306Z,10.18
2023-05-06T06:02:16.626Z,12.95
2023-05-06T06:04:42.971Z,12.73
2023-05-06T06:07:09.282Z,10.70
2023-05-06T06:09:35.556Z,12.65
2023-05-06T06:12:02.050Z,13.43
2023-05-06T06:14:28.300Z,13.95
2023-05-06T06:16:55.064Z,17.92
2023-05-06T06:19:21.382Z,16.65
2023-05-06T06:21:47.659Z,14.85
2023-05-06T06:24:13.871Z,15.52
2023-05-06T06:26:40.312Z,13.15
2023-05-06T06:29:06.526Z,11.82
2023-05-06T06:31:34.725Z,17.63
2023-05-06T06:34:01.005Z,13.35
2023-05-06T06:36:27.208Z,12.05
2023-05-06T06:38:53.434Z,14.05
2023-05-06T06:41:19.661Z,12.23
2023-05-06T06:43:45.886Z,11.38
2023-05-06T06:46:12.151Z,11.55
2023-05-06T06:48:38.377Z,11.48
2023-05-06T06:51:04.825Z,19.15
2023-05-06T06:53:31.043Z,10.40
2023-05-06T06:55:57.280Z,10.32
2023-05-06T06:58:23.488Z,13.63
2023-05-06T07:00:49.758Z,15.15
2023-05-06T07:03:19.176Z,17.15
2023-05-06T07:05:45.464Z,11.85
2023-05-06T07:08:11.689Z,9.45
2023-05-06T07:10:37.899Z,9.85
2023-05-06T07:13:04.446Z,9.80
2023-05-06T07:15:30.794Z,12.80
2023-05-06T07:17:57.044Z,10.98
2023-05-06T07:20:23.329Z,9.27
2023-05-06T07:22:49.615Z,8.57
2023-05-06T07:25:15.839Z,8.13
2023-05-06T07:27:42.044Z,8.95
2023-05-06T07:30:08.447Z,6.22
2023-05-06T07:32:34.761Z,10.35
2023-05-06T07:35:01.559Z,9.05
2023-05-06T07:37:27.780Z,7.50
2023-05-06T07:39:54.229Z,5.18
2023-05-06T07:42:20.493Z,7.13
2023-05-06T07:44:46.728Z,7.95
2023-05-06T07:47:17.183Z,7.00
2023-05-06T07:49:43.512Z,5.88
2023-05-06T07:52:09.704Z,7.03
2023-05-06T07:54:35.924Z,9.13
2023-05-06T07:57:02.717Z,5.57
2023-05-06T08:01:55.092Z,4.60
2023-05-06T08:04:22.014Z,6.60
2023-05-06T08:06:48.265Z,4.53
2023-05-06T08:09:22.249Z,5.80
2023-05-06T08:11:49.777Z,2.92
2023-05-06T08:14:16.001Z,5.90
2023-05-06T08:16:42.317Z,4.45
2023-05-06T08:19:08.616Z,6.00
2023-05-06T08:21:34.824Z,7.10
2023-05-06T08:24:01.108Z,7.85
2023-05-06T08:26:27.369Z,1.85
2023-05-06T08:28:54.157Z,1.33
2023-05-06T08:33:46.640Z,4.65
2023-05-06T08:36:12.853Z,1.73
2023-05-06T08:38:39.057Z,3.25
2023-05-06T08:41:08.349Z,4.00
2023-05-06T08:43:40.007Z,2.35
2023-05-06T08:46:06.303Z,4.75
2023-05-06T08:48:32.740Z,3.92
2023-05-06T08:51:01.139Z,4.95
2023-05-06T08:53:28.014Z,6.70
2023-05-06T08:55:54.952Z,1.98
2023-05-06T08:58:21.214Z,2.90
2023-05-06T09:00:48.445Z,7.28
2023-05-06T09:03:14.813Z,2.97
2023-05-06T09:05:41.244Z,3.13
2023-05-06T09:08:07.460Z,3.25
2023-05-06T09:10:47.239Z,2.25
2023-05-06T09:13:14.472Z,5.57
2023-05-06T09:15:42.003Z,6.20
2023-05-06T09:18:08.494Z,4.68
2023-05-06T09:20:35.344Z,3.45
2023-05-06T09:23:02.181Z,2.53
2023-05-06T09:25:29.466Z,3.35
2023-05-06T09:28:03.362Z,2.78
2023-05-06T09:30:29.904Z,3.45
2023-05-06T09:35:26.600Z,4.80
2023-05-06T09:37:53.147Z,6.40
2023-05-06T09:42:45.652Z,8.18
2023-05-06T09:45:15.774Z,6.15
2023-05-06T09:47:42.065Z,5.05
2023-05-06T09:50:08.839Z,7.18
2023-05-06T09:52:35.670Z,4.00
2023-05-06T09:55:03.250Z,4.97
2023-05-06T09:57:31.053Z,3.47
2023-05-06T09:59:57.511Z,15.10
2023-05-06T10:02:23.964Z,6.10
2023-05-06T10:04:50.994Z,7.78
2023-05-06T10:07:19.672Z,2.80
2023-05-06T10:09:46.792Z,2.72
2023-05-06T10:12:13.610Z,3.53
2023-05-06T10:14:39.840Z,4.68
2023-05-06T10:17:07.395Z,15.48
2023-05-06T10:19:34.954Z,5.47
2023-05-06T10:22:05.513Z,3.47
2023-05-06T10:24:34.469Z,3.90
2023-05-06T10:27:02.930Z,5.10
2023-05-06T10:29:29.162Z,4.25
2023-05-06T10:31:57.100Z,3.33
2023-05-06T10:34:24.049Z,3.88
2023-05-06T10:36:51.810Z,5.57
2023-05-06T10:39:18.566Z,3.13
2023-05-06T10:41:44.868Z,3.45
2023-05-06T10:44:11.884Z,2.80
2023-05-06T10:46:57.488Z,4.57
2023-05-06T10:49:23.724Z,3.80
2023-05-06T10:52:08.783Z,3.25
2023-05-06T10:54:46.516Z,4.22
2023-05-06T10:57:12.864Z,3.67
2023-05-06T10:59:44.724Z,4.97
2023-05-06T11:02:11.043Z,4.35
2023-05-06T11:04:37.543Z,3.97
2023-05-06T11:09:30.807Z,3.13
2023-05-06T11:12:03.103Z,3.13
2023-05-06T11:14:30.476Z,5.45
2023-05-06T11:16:58.130Z,2.35
2023-05-06T11:19:26.290Z,4.72
2023-05-06T11:21:53.447Z,4.25
2023-05-06T11:24:39.624Z,2.83
2023-05-06T11:27:06.239Z,3.65
2023-05-06T11:29:32.566Z,3.08
2023-05-06T11:31:59.006Z,2.78
2023-05-06T11:34:29.796Z,3.15
2023-05-06T11:36:58.464Z,2.58
2023-05-06T11:39:30.173Z,1.95
2023-05-06T11:42:00.453Z,2.22
2023-05-06T11:44:27.659Z,2.80
2023-05-06T11:46:56.201Z,3.25
2023-05-06T11:49:22.927Z,2.58
2023-05-06T11:51:49.639Z,1.42
2023-05-06T11:54:19.104Z,2.53
2023-05-06T11:56:49.339Z,3.53
2023-05-06T11:59:15.649Z,7.30
2023-05-06T12:01:42.709Z,5.68
2023-05-06T12:04:09.349Z,3.30
2023-05-06T12:06:35.930Z,2.78
2023-05-06T12:11:28.401Z,2.38
2023-05-06T12:13:54.891Z,7.30
2023-05-06T12:16:22.744Z,3.45
2023-05-06T12:18:49.234Z,3.97
2023-05-06T12:23:52.230Z,2.45
2023-05-06T12:26:19.545Z,3.72
2023-05-06T12:28:45.973Z,2.45
2023-05-06T12:31:18.892Z,1.20
2023-05-06T12:33:46.223Z,1.88
2023-05-06T12:36:12.552Z,3.90
2023-05-06T12:41:06.918Z,3.17
2023-05-06T12:43:33.190Z,2.90
2023-05-06T12:48:25.724Z,1.92
2023-05-06T12:53:30.558Z,3.55
2023-05-06T12:55:56.807Z,4.60
2023-05-06T12:58:23.067Z,3.17
2023-05-06T13:00:49.433Z,2.72
2023-05-06T13:05:41.985Z,3.85
2023-05-06T13:08:08.199Z,5.72
2023-05-06T13:10:34.422Z,4.88
2023-05-06T13:13:00.699Z,2.60
2023-05-06T13:15:27.029Z,4.85
2023-05-06T13:20:19.577Z,2.20
2023-05-06T13:22:54.235Z,2.35
2023-05-06T13:25:21.734Z,8.02
2023-05-06T13:27:47.972Z,2.03
2023-05-06T13:30:14.305Z,2.15
2023-05-06T13:35:07.040Z,5.72
2023-05-06T13:37:33.274Z,1.63
2023-05-06T13:39:59.531Z,2.17
2023-05-06T13:44:52.128Z,4.93
2023-05-06T13:47:18.353Z,1.63
2023-05-06T13:49:44.560Z,3.95
2023-05-06T13:52:10.798Z,3.50
2023-05-06T13:54:37.560Z,2.92
2023-05-06T13:57:03.773Z,2.63
2023-05-06T13:59:30.025Z,1.77
2023-05-06T14:01:57.180Z,4.38
2023-05-06T14:04:23.457Z,1.35
2023-05-06T14:06:49.800Z,1.98
2023-05-06T14:09:16.043Z,2.60
2023-05-06T14:11:42.324Z,2.38
2023-05-06T14:14:08.522Z,0.85
2023-05-06T14:16:34.792Z,1.75
2023-05-06T14:19:01.064Z,4.13
2023-05-06T14:21:27.285Z,1.88
2023-05-06T14:23:53.996Z,2.75
2023-05-06T14:26:20.965Z,3.38
2023-05-06T14:28:47.191Z,3.88
2023-05-06T14:31:13.470Z,2.97
2023-05-06T14:33:39.754Z,2.97
2023-05-06T14:36:06.118Z,1.25
2023-05-06T14:38:32.359Z,1.48
2023-05-06T14:40:59.594Z,1.38
2023-05-06T14:43:26.030Z,1.05
2023-05-06T14:45:52.287Z,1.92
2023-05-06T14:48:18.553Z,4.47
2023-05-06T14:50:44.806Z,2.13
2023-05-06T14:53:11.063Z,3.40
2023-05-06T14:55:37.464Z,8.82
2023-05-06T14:58:03.692Z,6.20
2023-05-06T15:00:29.917Z,5.68
2023-05-06T15:05:22.739Z,2.53
2023-05-06T15:07:49.069Z,2.33
2023-05-06T15:10:15.416Z,1.52
2023-05-06T15:12:41.669Z,3.97
2023-05-06T15:15:08.326Z,2.38
2023-05-06T15:17:34.769Z,3.33
2023-05-06T15:20:01.151Z,1.17
2023-05-06T15:22:27.424Z,5.10
2023-05-06T15:27:19.794Z,5.32
2023-05-06T15:32:12.179Z,10.80
2023-05-06T15:37:04.573Z,4.13
2023-05-06T15:41:58.225Z,2.67
2023-05-06T15:44:24.499Z,3.00
2023-05-06T15:49:47.321Z,0.90
2023-05-06T15:52:03.109Z,2.25
2023-05-06T15:56:56.290Z,2.08
2023-05-06T15:59:22.925Z,3.30
2023-05-06T16:04:18.464Z,4.60
2023-05-06T16:06:44.743Z,2.97
2023-05-06T16:09:11.207Z,3.35
2023-05-06T16:11:37.467Z,6.53
2023-05-06T16:14:03.777Z,2.65
2023-05-06T16:16:30.071Z,11.15
2023-05-06T16:21:22.564Z,10.10
2023-05-06T16:23:48.819Z,3.03
2023-05-06T16:28:42.157Z,4.32
2023-05-06T16:31:08.809Z,2.90
2023-05-06T16:33:35.093Z,3.42
2023-05-06T16:36:01.620Z,4.15
2023-05-06T16:38:28.037Z,3.60
2023-05-06T16:43:20.582Z,5.50
2023-05-06T16:48:14.015Z,3.05
2023-05-06T16:50:40.517Z,7.28
2023-05-06T16:55:33.388Z,3.42
2023-05-06T17:00:27.546Z,5.78
2023-05-06T17:02:54.021Z,2.42
2023-05-06T17:07:48.476Z,3.90
2023-05-06T17:10:14.717Z,2.15
2023-05-06T17:12:41.995Z,1.58
2023-05-06T17:15:08.495Z,4.32
2023-05-06T17:20:01.322Z,1.83
2023-05-06T17:22:28.294Z,1.73
2023-05-06T17:24:54.579Z,1.40
2023-05-06T17:27:20.804Z,1.60
2023-05-06T17:29:47.139Z,1.75
2023-05-06T17:32:13.406Z,1.13
2023-05-06T17:34:39.666Z,3.20
2023-05-06T17:37:06.032Z,2.28
2023-05-06T17:39:35.069Z,4.47
2023-05-06T17:42:02.486Z,3.15
2023-05-06T17:44:28.711Z,4.97
2023-05-06T17:46:55.064Z,2.55
2023-05-06T17:49:21.347Z,4.68
2023-05-06T17:51:47.606Z,7.68
2023-05-06T17:54:13.857Z,2.08
2023-05-06T17:56:40.142Z,1.58
2023-05-06T17:59:06.411Z,6.28
2023-05-06T18:01:32.691Z,1.55
2023-05-06T18:03:59.095Z,2.33
2023-05-06T18:06:26.926Z,1.73
2023-05-06T18:08:53.175Z,3.25
2023-05-06T18:11:19.473Z,2.20
2023-05-06T18:13:46.051Z,4.35
2023-05-06T18:16:12.340Z,2.17
2023-05-06T18:18:38.615Z,3.50
2023-05-06T18:21:04.853Z,2.75
2023-05-06T18:23:31.137Z,3.03
2023-05-06T18:25:57.478Z,2.88
2023-05-06T18:28:23.718Z,1.38
2023-05-06T18:30:49.935Z,3.90
2023-05-06T18:33:16.364Z,3.88
2023-05-06T18:35:42.692Z,9.95
2023-05-06T18:38:09.458Z,3.53
2023-05-06T18:40:36.540Z,4.13
2023-05-06T18:43:02.745Z,3.75
2023-05-06T18:45:29.473Z,3.72
2023-05-06T18:50:23.601Z,5.85
2023-05-06T18:52:50.276Z,7.43
2023-05-06T18:55:16.691Z,2.92
2023-05-06T18:57:43.187Z,3.38
2023-05-06T19:00:09.575Z,3.95
2023-05-06T19:02:35.828Z,3.47
2023-05-06T19:05:02.060Z,2.33
2023-05-06T19:07:28.286Z,5.03
2023-05-06T19:09:54.868Z,3.63
2023-05-06T19:12:22.669Z,2.90
2023-05-06T19:14:49.149Z,3.33
2023-05-06T19:17:16.089Z,3.38
2023-05-06T19:19:42.400Z,3.17
2023-05-06T19:22:08.654Z,2.83
2023-05-06T19:24:34.879Z,4.05
2023-05-06T19:27:01.727Z,7.25
2023-05-06T19:31:54.521Z,3.55
2023-05-06T19:34:20.800Z,3.95
2023-05-06T19:36:47.129Z,3.92
2023-05-06T19:39:13.420Z,3.58
2023-05-06T19:41:39.724Z,4.18
2023-05-06T19:44:06.006Z,5.30
2023-05-06T19:46:32.298Z,3.67
2023-05-06T19:48:58.614Z,7.40
2023-05-06T19:51:24.943Z,2.70
2023-05-06T19:53:51.340Z,6.18
2023-05-06T19:56:18.708Z,5.35
2023-05-06T19:58:45.228Z,6.40
2023-05-06T20:01:11.846Z,3.25
2023-05-06T20:03:38.378Z,4.63
2023-05-06T20:06:04.821Z,5.57
2023-05-06T20:08:31.075Z,6.38
2023-05-06T20:10:57.941Z,5.80
2023-05-06T20:15:50.834Z,8.68
2023-05-06T20:18:17.119Z,10.15
2023-05-06T20:20:43.418Z,6.35
2023-05-06T20:23:09.669Z,20.98
2023-05-06T20:25:37.134Z,12.88
2023-05-06T20:28:04.466Z,13.32
2023-05-06T20:30:30.846Z,8.98
2023-05-06T20:32:57.287Z,9.60
2023-05-06T20:35:23.602Z,8.55
2023-05-06T20:37:49.834Z,8.10
2023-05-06T20:40:16.080Z,7.80
2023-05-06T20:42:42.396Z,4.50
2023-05-06T20:45:09.177Z,7.60
2023-05-06T20:47:36.465Z,5.78
2023-05-06T20:50:03.137Z,8.48
2023-05-06T20:52:29.365Z,7.43
2023-05-06T20:54:55.676Z,3.90
2023-05-06T20:57:22.036Z,6.97
2023-05-06T20:59:52.276Z,7.03
2023-05-06T21:02:18.582Z,4.68
2023-05-06T21:04:44.849Z,9.55
2023-05-06T21:07:11.050Z,6.28
2023-05-06T21:09:38.042Z,5.78
2023-05-06T21:12:04.463Z,4.82
2023-05-06T21:14:30.732Z,6.32
2023-05-06T21:16:57.000Z,8.95
2023-05-06T21:19:23.236Z,6.63
2023-05-06T21:21:49.461Z,11.10
2023-05-06T21:24:15.694Z,5.03
2023-05-06T21:26:42.158Z,5.45
2023-05-06T21:29:08.478Z,6.70
2023-05-06T21:31:34.849Z,6.40
2023-05-06T21:34:01.298Z,9.00
2023-05-06T21:36:27.591Z,11.60
2023-05-06T21:39:07.935Z,7.68
2023-05-06T21:41:35.972Z,10.10
2023-05-06T21:44:02.754Z,6.85
2023-05-06T21:46:29.135Z,6.05
2023-05-06T21:48:55.460Z,9.90
2023-05-06T21:51:21.714Z,9.48
2023-05-06T21:53:51.150Z,10.25
2023-05-06T21:56:17.958Z,9.05
2023-05-06T21:58:44.329Z,6.13
2023-05-06T22:01:10.755Z,10.82
2023-05-06T22:03:37.127Z,6.25
2023-05-06T22:06:03.969Z,11.90
2023-05-06T22:08:30.227Z,9.85
2023-05-06T22:10:56.697Z,7.05
2023-05-06T22:13:26.602Z,6.93
2023-05-06T22:15:53.309Z,6.72
2023-05-06T22:18:19.837Z,6.78
2023-05-06T22:20:46.610Z,8.95
2023-05-06T22:23:13.331Z,9.48
2023-05-06T22:25:39.549Z,5.82
2023-05-06T22:28:05.996Z,9.10
2023-05-06T22:30:32.235Z,13.82
2023-05-06T22:32:58.498Z,6.88
2023-05-06T22:35:24.749Z,6.88
2023-05-06T22:37:51.035Z,7.80
2023-05-06T22:40:17.260Z,7.88
2023-05-06T22:42:43.527Z,6.88
2023-05-06T22:45:10.110Z,9.73
2023-05-06T22:47:36.551Z,7.32
2023-05-06T22:50:02.985Z,3.95
2023-05-06T22:52:29.218Z,7.43
2023-05-06T22:54:55.458Z,8.20
2023-05-06T22:57:25.326Z,6.63
2023-05-06T22:59:51.647Z,6.80
2023-05-06T23:02:17.931Z,5.72
2023-05-06T23:04:44.157Z,8.52
2023-05-06T23:07:10.540Z,6.70
2023-05-06T23:09:36.788Z,4.90
2023-05-06T23:12:03.133Z,10.27
2023-05-06T23:14:29.354Z,7.22
2023-05-06T23:16:55.727Z,7.47
2023-05-06T23:19:22.091Z,11.25
2023-05-06T23:21:48.307Z,12.77
2023-05-06T23:24:14.519Z,10.77
2023-05-06T23:26:40.746Z,10.50
2023-05-06T23:29:06.940Z,8.57
2023-05-06T23:31:33.236Z,9.13
2023-05-06T23:33:59.489Z,7.38
2023-05-06T23:36:25.822Z,12.27
2023-05-06T23:38:52.066Z,7.63
2023-05-06T23:41:18.364Z,6.55
2023-05-06T23:43:44.569Z,6.35
2023-05-06T23:46:11.142Z,3.85
2023-05-06T23:48:37.941Z,9.40
2023-05-06T23:51:04.169Z,6.25
2023-05-06T23:53:30.822Z,5.95
2023-05-06T23:55:57.153Z,5.28
2023-05-06T23:58:23.447Z,7.90
